sensor_id;sensor_type;location;lat;lon;timestamp;P1;durP1;ratioP1;P2;durP2;ratioP2
9374;SDS011;4727;51.202;6.344;2023-09-19T00:01:13;15.77;;;5.17;;
9374;SDS011;4727;51.202;6.344;2023-09-19T00:03:40;11.90;;;4.07;;
9374;SDS011;4727;51.202;6.344;2023-09-19T00:06:06;18.27;;;4.70;;
9374;SDS011;4727;51.202;6.344;2023-09-19T00:08:33;17.97;;;6.27;;
9374;SDS011;4727;51.202;6.344;2023-09-19T00:10:59;13.17;;;4.20;;
9374;SDS011;4727;51.202;6.344;2023-09-19T00:13:31;23.20;;;6.67;;
9374;SDS011;4727;51.202;6.344;2023-09-19T00:15:57;17.53;;;5.63;;
9374;SDS011;4727;51.202;6.344;2023-09-19T00:18:24;23.80;;;6.80;;
9374;SDS011;4727;51.202;6.344;2023-09-19T00:20:57;20.07;;;5.47;;
9374;SDS011;4727;51.202;6.344;2023-09-19T00:23:23;22.93;;;6.10;;
9374;SDS011;4727;51.202;6.344;2023-09-19T00:25:50;18.47;;;5.67;;
9374;SDS011;4727;51.202;6.344;2023-09-19T00:28:16;14.17;;;4.60;;
9374;SDS011;4727;51.202;6.344;2023-09-19T00:30:43;14.13;;;4.80;;
9374;SDS011;4727;51.202;6.344;2023-09-19T00:33:09;9.57;;;3.90;;
9374;SDS011;4727;51.202;6.344;2023-09-19T00:35:36;14.00;;;4.67;;
9374;SDS011;4727;51.202;6.344;2023-09-19T00:38:02;16.93;;;6.10;;
9374;SDS011;4727;51.202;6.344;2023-09-19T00:40:29;21.43;;;6.90;;
9374;SDS011;4727;51.202;6.344;2023-09-19T00:42:57;13.10;;;4.73;;
9374;SDS011;4727;51.202;6.344;2023-09-19T00:45:26;11.77;;;5.30;;
9374;SDS011;4727;51.202;6.344;2023-09-19T00:47:53;8.80;;;4.30;;
9374;SDS011;4727;51.202;6.344;2023-09-19T00:50:20;18.97;;;6.37;;
9374;SDS011;4727;51.202;6.344;2023-09-19T00:52:52;19.07;;;5.17;;
9374;SDS011;4727;51.202;6.344;2023-09-19T00:55:20;13.67;;;5.93;;
9374;SDS011;4727;51.202;6.344;2023-09-19T00:57:47;11.03;;;4.63;;
9374;SDS011;4727;51.202;6.344;2023-09-19T01:00:15;14.10;;;5.23;;
9374;SDS011;4727;51.202;6.344;2023-09-19T01:02:41;12.50;;;4.20;;
9374;SDS011;4727;51.202;6.344;2023-09-19T01:05:08;14.30;;;5.87;;
9374;SDS011;4727;51.202;6.344;2023-09-19T01:07:34;11.90;;;4.67;;
9374;SDS011;4727;51.202;6.344;2023-09-19T01:10:02;11.37;;;5.07;;
9374;SDS011;4727;51.202;6.344;2023-09-19T01:12:33;14.00;;;5.53;;
9374;SDS011;4727;51.202;6.344;2023-09-19T01:15:06;8.37;;;3.43;;
9374;SDS011;4727;51.202;6.344;2023-09-19T01:17:45;11.77;;;4.90;;
9374;SDS011;4727;51.202;6.344;2023-09-19T01:20:17;14.73;;;5.23;;
9374;SDS011;4727;51.202;6.344;2023-09-19T01:23:07;15.90;;;4.97;;
9374;SDS011;4727;51.202;6.344;2023-09-19T01:31:08;11.10;;;3.97;;
9374;SDS011;4727;51.202;6.344;2023-09-19T01:36:24;12.97;;;6.00;;
9374;SDS011;4727;51.202;6.344;2023-09-19T01:38:50;11.10;;;4.50;;
9374;SDS011;4727;51.202;6.344;2023-09-19T01:41:17;9.87;;;5.10;;
9374;SDS011;4727;51.202;6.344;2023-09-19T01:43:47;11.27;;;5.13;;
9374;SDS011;4727;51.202;6.344;2023-09-19T01:46:21;10.93;;;5.07;;
9374;SDS011;4727;51.202;6.344;2023-09-19T01:48:55;10.13;;;4.97;;
9374;SDS011;4727;51.202;6.344;2023-09-19T01:51:34;13.20;;;6.60;;
9374;SDS011;4727;51.202;6.344;2023-09-19T01:54:03;10.60;;;4.13;;
9374;SDS011;4727;51.202;6.344;2023-09-19T01:56:42;14.50;;;6.37;;
9374;SDS011;4727;51.202;6.344;2023-09-19T01:59:13;9.80;;;4.43;;
9374;SDS011;4727;51.202;6.344;2023-09-19T02:01:39;11.47;;;5.20;;
9374;SDS011;4727;51.202;6.344;2023-09-19T02:04:07;14.23;;;4.67;;
9374;SDS011;4727;51.202;6.344;2023-09-19T02:06:33;15.83;;;6.57;;
9374;SDS011;4727;51.202;6.344;2023-09-19T02:08:59;10.57;;;4.93;;
9374;SDS011;4727;51.202;6.344;2023-09-19T02:11:25;11.93;;;5.73;;
9374;SDS011;4727;51.202;6.344;2023-09-19T02:13:51;14.43;;;6.67;;
9374;SDS011;4727;51.202;6.344;2023-09-19T02:16:19;13.67;;;6.20;;
9374;SDS011;4727;51.202;6.344;2023-09-19T02:18:46;11.53;;;5.73;;
9374;SDS011;4727;51.202;6.344;2023-09-19T02:21:12;8.20;;;4.43;;
9374;SDS011;4727;51.202;6.344;2023-09-19T02:23:38;11.17;;;4.77;;
9374;SDS011;4727;51.202;6.344;2023-09-19T02:26:06;8.10;;;4.13;;
9374;SDS011;4727;51.202;6.344;2023-09-19T02:28:32;12.20;;;5.73;;
9374;SDS011;4727;51.202;6.344;2023-09-19T02:30:58;9.97;;;4.07;;
9374;SDS011;4727;51.202;6.344;2023-09-19T02:33:24;9.93;;;4.73;;
9374;SDS011;4727;51.202;6.344;2023-09-19T02:35:54;11.33;;;5.10;;
9374;SDS011;4727;51.202;6.344;2023-09-19T02:38:22;9.63;;;4.87;;
9374;SDS011;4727;51.202;6.344;2023-09-19T02:40:49;10.97;;;5.33;;
9374;SDS011;4727;51.202;6.344;2023-09-19T02:43:16;13.20;;;5.70;;
9374;SDS011;4727;51.202;6.344;2023-09-19T02:45:42;12.20;;;5.53;;
9374;SDS011;4727;51.202;6.344;2023-09-19T02:48:08;8.57;;;4.50;;
9374;SDS011;4727;51.202;6.344;2023-09-19T02:50:36;8.10;;;4.23;;
9374;SDS011;4727;51.202;6.344;2023-09-19T02:53:05;12.53;;;4.57;;
9374;SDS011;4727;51.202;6.344;2023-09-19T02:55:31;10.53;;;4.57;;
9374;SDS011;4727;51.202;6.344;2023-09-19T02:57:57;8.10;;;3.83;;
9374;SDS011;4727;51.202;6.344;2023-09-19T03:00:23;11.30;;;4.80;;
9374;SDS011;4727;51.202;6.344;2023-09-19T03:02:50;11.10;;;5.27;;
9374;SDS011;4727;51.202;6.344;2023-09-19T03:05:18;13.37;;;5.80;;
9374;SDS011;4727;51.202;6.344;2023-09-19T03:07:44;16.07;;;7.87;;
9374;SDS011;4727;51.202;6.344;2023-09-19T03:10:15;12.97;;;5.20;;
9374;SDS011;4727;51.202;6.344;2023-09-19T03:12:41;10.23;;;5.00;;
9374;SDS011;4727;51.202;6.344;2023-09-19T03:15:07;7.20;;;4.03;;
9374;SDS011;4727;51.202;6.344;2023-09-19T03:17:33;9.47;;;4.30;;
9374;SDS011;4727;51.202;6.344;2023-09-19T03:20:00;8.90;;;4.27;;
9374;SDS011;4727;51.202;6.344;2023-09-19T03:22:27;11.37;;;5.33;;
9374;SDS011;4727;51.202;6.344;2023-09-19T03:24:53;11.33;;;5.00;;
9374;SDS011;4727;51.202;6.344;2023-09-19T03:27:19;14.43;;;4.83;;
9374;SDS011;4727;51.202;6.344;2023-09-19T03:29:46;10.47;;;5.30;;
9374;SDS011;4727;51.202;6.344;2023-09-19T03:32:12;10.80;;;4.23;;
9374;SDS011;4727;51.202;6.344;2023-09-19T03:34:38;9.13;;;4.43;;
9374;SDS011;4727;51.202;6.344;2023-09-19T03:37:08;10.73;;;5.00;;
9374;SDS011;4727;51.202;6.344;2023-09-19T03:39:34;9.40;;;4.20;;
9374;SDS011;4727;51.202;6.344;2023-09-19T03:42:00;9.13;;;4.90;;
9374;SDS011;4727;51.202;6.344;2023-09-19T03:44:27;8.73;;;4.63;;
9374;SDS011;4727;51.202;6.344;2023-09-19T03:46:53;7.13;;;3.53;;
9374;SDS011;4727;51.202;6.344;2023-09-19T03:49:21;13.67;;;6.37;;
9374;SDS011;4727;51.202;6.344;2023-09-19T03:51:47;16.17;;;7.77;;
9374;SDS011;4727;51.202;6.344;2023-09-19T03:54:13;11.70;;;5.07;;
9374;SDS011;4727;51.202;6.344;2023-09-19T03:56:39;10.70;;;4.93;;
9374;SDS011;4727;51.202;6.344;2023-09-19T03:59:05;11.50;;;4.27;;
9374;SDS011;4727;51.202;6.344;2023-09-19T04:01:33;5.23;;;2.67;;
9374;SDS011;4727;51.202;6.344;2023-09-19T04:03:59;6.63;;;3.63;;
9374;SDS011;4727;51.202;6.344;2023-09-19T04:06:33;6.53;;;3.57;;
9374;SDS011;4727;51.202;6.344;2023-09-19T04:09:00;6.00;;;3.00;;
9374;SDS011;4727;51.202;6.344;2023-09-19T04:11:26;8.17;;;4.23;;
9374;SDS011;4727;51.202;6.344;2023-09-19T04:13:52;11.80;;;5.70;;
9374;SDS011;4727;51.202;6.344;2023-09-19T04:16:18;10.30;;;4.30;;
9374;SDS011;4727;51.202;6.344;2023-09-19T04:18:44;11.27;;;5.40;;
9374;SDS011;4727;51.202;6.344;2023-09-19T04:21:11;9.63;;;4.83;;
9374;SDS011;4727;51.202;6.344;2023-09-19T04:23:37;3.87;;;2.87;;
9374;SDS011;4727;51.202;6.344;2023-09-19T04:26:03;7.97;;;3.40;;
9374;SDS011;4727;51.202;6.344;2023-09-19T04:28:31;5.63;;;2.83;;
9374;SDS011;4727;51.202;6.344;2023-09-19T04:30:59;13.27;;;6.07;;
9374;SDS011;4727;51.202;6.344;2023-09-19T04:33:25;13.47;;;5.93;;
9374;SDS011;4727;51.202;6.344;2023-09-19T04:35:52;11.27;;;4.53;;
9374;SDS011;4727;51.202;6.344;2023-09-19T04:38:18;12.57;;;5.50;;
9374;SDS011;4727;51.202;6.344;2023-09-19T04:40:45;8.27;;;4.57;;
9374;SDS011;4727;51.202;6.344;2023-09-19T04:43:11;10.67;;;4.37;;
9374;SDS011;4727;51.202;6.344;2023-09-19T04:45:38;10.07;;;4.03;;
9374;SDS011;4727;51.202;6.344;2023-09-19T04:48:05;7.93;;;3.43;;
9374;SDS011;4727;51.202;6.344;2023-09-19T04:50:34;12.07;;;5.27;;
9374;SDS011;4727;51.202;6.344;2023-09-19T04:53:00;10.47;;;5.47;;
9374;SDS011;4727;51.202;6.344;2023-09-19T04:55:26;9.87;;;4.90;;
9374;SDS011;4727;51.202;6.344;2023-09-19T04:57:52;15.27;;;5.93;;
9374;SDS011;4727;51.202;6.344;2023-09-19T05:00:21;15.37;;;6.70;;
9374;SDS011;4727;51.202;6.344;2023-09-19T05:02:51;21.43;;;7.57;;
9374;SDS011;4727;51.202;6.344;2023-09-19T05:05:18;13.83;;;6.27;;
9374;SDS011;4727;51.202;6.344;2023-09-19T05:07:44;7.03;;;4.00;;
9374;SDS011;4727;51.202;6.344;2023-09-19T05:10:10;8.40;;;3.67;;
9374;SDS011;4727;51.202;6.344;2023-09-19T05:12:39;8.20;;;4.17;;
9374;SDS011;4727;51.202;6.344;2023-09-19T05:15:06;7.13;;;3.20;;
9374;SDS011;4727;51.202;6.344;2023-09-19T05:17:33;6.13;;;3.33;;
9374;SDS011;4727;51.202;6.344;2023-09-19T05:19:59;6.63;;;3.67;;
9374;SDS011;4727;51.202;6.344;2023-09-19T05:22:37;9.30;;;3.90;;
9374;SDS011;4727;51.202;6.344;2023-09-19T05:25:06;6.63;;;3.73;;
9374;SDS011;4727;51.202;6.344;2023-09-19T05:27:32;6.07;;;3.20;;
9374;SDS011;4727;51.202;6.344;2023-09-19T05:29:58;12.93;;;4.77;;
9374;SDS011;4727;51.202;6.344;2023-09-19T05:32:24;6.57;;;3.80;;
9374;SDS011;4727;51.202;6.344;2023-09-19T05:34:50;8.53;;;3.33;;
9374;SDS011;4727;51.202;6.344;2023-09-19T05:37:21;9.20;;;4.13;;
9374;SDS011;4727;51.202;6.344;2023-09-19T05:39:48;8.30;;;3.77;;
9374;SDS011;4727;51.202;6.344;2023-09-19T05:42:14;8.23;;;3.50;;
9374;SDS011;4727;51.202;6.344;2023-09-19T05:44:40;12.23;;;4.57;;
9374;SDS011;4727;51.202;6.344;2023-09-19T05:47:06;4.20;;;2.67;;
9374;SDS011;4727;51.202;6.344;2023-09-19T05:49:34;6.07;;;3.53;;
9374;SDS011;4727;51.202;6.344;2023-09-19T05:52:03;9.67;;;3.67;;
9374;SDS011;4727;51.202;6.344;2023-09-19T05:54:29;6.03;;;3.07;;
9374;SDS011;4727;51.202;6.344;2023-09-19T05:56:55;10.77;;;4.13;;
9374;SDS011;4727;51.202;6.344;2023-09-19T05:59:22;14.73;;;5.10;;
9374;SDS011;4727;51.202;6.344;2023-09-19T06:01:49;14.53;;;4.37;;
9374;SDS011;4727;51.202;6.344;2023-09-19T06:04:17;5.63;;;3.23;;
9374;SDS011;4727;51.202;6.344;2023-09-19T06:06:44;8.40;;;4.30;;
9374;SDS011;4727;51.202;6.344;2023-09-19T06:09:10;7.77;;;4.00;;
9374;SDS011;4727;51.202;6.344;2023-09-19T06:11:36;12.93;;;5.33;;
9374;SDS011;4727;51.202;6.344;2023-09-19T06:14:02;7.00;;;4.10;;
9374;SDS011;4727;51.202;6.344;2023-09-19T06:16:29;9.23;;;3.57;;
9374;SDS011;4727;51.202;6.344;2023-09-19T06:18:57;7.30;;;3.80;;
9374;SDS011;4727;51.202;6.344;2023-09-19T06:21:24;9.60;;;5.20;;
9374;SDS011;4727;51.202;6.344;2023-09-19T06:23:51;9.47;;;3.43;;
9374;SDS011;4727;51.202;6.344;2023-09-19T06:26:17;10.97;;;4.70;;
9374;SDS011;4727;51.202;6.344;2023-09-19T06:28:43;7.90;;;3.57;;
9374;SDS011;4727;51.202;6.344;2023-09-19T06:31:09;10.83;;;4.20;;
9374;SDS011;4727;51.202;6.344;2023-09-19T06:33:38;12.67;;;4.93;;
9374;SDS011;4727;51.202;6.344;2023-09-19T06:36:07;10.20;;;4.10;;
9374;SDS011;4727;51.202;6.344;2023-09-19T06:38:33;11.87;;;4.37;;
9374;SDS011;4727;51.202;6.344;2023-09-19T06:41:01;10.83;;;4.77;;
9374;SDS011;4727;51.202;6.344;2023-09-19T06:43:30;7.80;;;3.47;;
9374;SDS011;4727;51.202;6.344;2023-09-19T06:45:56;6.00;;;3.27;;
9374;SDS011;4727;51.202;6.344;2023-09-19T06:48:22;7.20;;;3.23;;
9374;SDS011;4727;51.202;6.344;2023-09-19T06:50:54;5.07;;;2.77;;
9374;SDS011;4727;51.202;6.344;2023-09-19T06:53:20;5.03;;;3.13;;
9374;SDS011;4727;51.202;6.344;2023-09-19T06:55:48;4.50;;;2.67;;
9374;SDS011;4727;51.202;6.344;2023-09-19T06:58:14;4.83;;;2.77;;
9374;SDS011;4727;51.202;6.344;2023-09-19T07:00:41;5.50;;;3.10;;
9374;SDS011;4727;51.202;6.344;2023-09-19T07:03:08;7.73;;;3.63;;
9374;SDS011;4727;51.202;6.344;2023-09-19T07:05:36;6.80;;;3.67;;
9374;SDS011;4727;51.202;6.344;2023-09-19T07:08:04;13.37;;;5.57;;
9374;SDS011;4727;51.202;6.344;2023-09-19T07:10:31;10.47;;;3.80;;
9374;SDS011;4727;51.202;6.344;2023-09-19T07:13:01;18.87;;;6.93;;
9374;SDS011;4727;51.202;6.344;2023-09-19T07:15:28;9.30;;;3.77;;
9374;SDS011;4727;51.202;6.344;2023-09-19T07:17:55;3.63;;;1.50;;
9374;SDS011;4727;51.202;6.344;2023-09-19T07:20:22;3.30;;;1.23;;
9374;SDS011;4727;51.202;6.344;2023-09-19T07:22:51;6.33;;;1.50;;
9374;SDS011;4727;51.202;6.344;2023-09-19T07:25:19;3.80;;;1.40;;
9374;SDS011;4727;51.202;6.344;2023-09-19T07:27:45;7.20;;;1.17;;
9374;SDS011;4727;51.202;6.344;2023-09-19T07:30:11;0.67;;;0.67;;
9374;SDS011;4727;51.202;6.344;2023-09-19T07:32:38;2.03;;;1.20;;
9374;SDS011;4727;51.202;6.344;2023-09-19T07:35:05;1.07;;;0.60;;
9374;SDS011;4727;51.202;6.344;2023-09-19T07:37:31;6.70;;;1.50;;
9374;SDS011;4727;51.202;6.344;2023-09-19T07:40:01;4.07;;;1.33;;
9374;SDS011;4727;51.202;6.344;2023-09-19T07:42:32;2.00;;;0.67;;
9374;SDS011;4727;51.202;6.344;2023-09-19T07:44:58;2.80;;;1.13;;
9374;SDS011;4727;51.202;6.344;2023-09-19T07:47:25;1.67;;;1.40;;
9374;SDS011;4727;51.202;6.344;2023-09-19T07:49:51;0.97;;;0.97;;
9374;SDS011;4727;51.202;6.344;2023-09-19T07:52:17;0.63;;;0.63;;
9374;SDS011;4727;51.202;6.344;2023-09-19T07:54:44;2.87;;;1.00;;
9374;SDS011;4727;51.202;6.344;2023-09-19T07:57:10;1.17;;;1.10;;
9374;SDS011;4727;51.202;6.344;2023-09-19T07:59:37;1.33;;;1.23;;
9374;SDS011;4727;51.202;6.344;2023-09-19T08:02:04;2.37;;;1.40;;
9374;SDS011;4727;51.202;6.344;2023-09-19T08:04:30;2.37;;;1.13;;
9374;SDS011;4727;51.202;6.344;2023-09-19T08:06:58;3.57;;;1.30;;
9374;SDS011;4727;51.202;6.344;2023-09-19T08:09:25;2.43;;;1.00;;
9374;SDS011;4727;51.202;6.344;2023-09-19T08:11:51;1.67;;;1.47;;
9374;SDS011;4727;51.202;6.344;2023-09-19T08:14:18;1.23;;;0.47;;
9374;SDS011;4727;51.202;6.344;2023-09-19T08:16:44;3.00;;;1.00;;
9374;SDS011;4727;51.202;6.344;2023-09-19T08:19:10;4.03;;;1.50;;
9374;SDS011;4727;51.202;6.344;2023-09-19T08:21:36;2.53;;;1.13;;
9374;SDS011;4727;51.202;6.344;2023-09-19T08:24:02;1.90;;;1.10;;
9374;SDS011;4727;51.202;6.344;2023-09-19T08:26:31;3.97;;;1.10;;
9374;SDS011;4727;51.202;6.344;2023-09-19T08:28:57;2.80;;;1.30;;
9374;SDS011;4727;51.202;6.344;2023-09-19T08:31:23;3.70;;;1.30;;
9374;SDS011;4727;51.202;6.344;2023-09-19T08:33:50;1.03;;;0.93;;
9374;SDS011;4727;51.202;6.344;2023-09-19T08:36:18;5.20;;;1.70;;
9374;SDS011;4727;51.202;6.344;2023-09-19T08:38:43;1.70;;;1.10;;
9374;SDS011;4727;51.202;6.344;2023-09-19T08:41:09;2.00;;;1.10;;
9374;SDS011;4727;51.202;6.344;2023-09-19T08:43:35;1.47;;;1.13;;
9374;SDS011;4727;51.202;6.344;2023-09-19T08:48:30;1.40;;;1.30;;
9374;SDS011;4727;51.202;6.344;2023-09-19T08:50:59;5.00;;;1.83;;
9374;SDS011;4727;51.202;6.344;2023-09-19T08:53:36;0.63;;;0.63;;
9374;SDS011;4727;51.202;6.344;2023-09-19T08:56:25;1.63;;;1.00;;
9374;SDS011;4727;51.202;6.344;2023-09-19T08:59:05;2.73;;;0.77;;
9374;SDS011;4727;51.202;6.344;2023-09-19T09:01:36;1.50;;;1.40;;
9374;SDS011;4727;51.202;6.344;2023-09-19T09:04:04;2.20;;;0.70;;
9374;SDS011;4727;51.202;6.344;2023-09-19T09:06:38;2.40;;;1.33;;
9374;SDS011;4727;51.202;6.344;2023-09-19T09:09:08;2.67;;;1.00;;
9374;SDS011;4727;51.202;6.344;2023-09-19T09:11:34;2.30;;;1.03;;
9374;SDS011;4727;51.202;6.344;2023-09-19T09:14:00;1.90;;;0.93;;
9374;SDS011;4727;51.202;6.344;2023-09-19T09:16:26;3.53;;;1.70;;
9374;SDS011;4727;51.202;6.344;2023-09-19T09:18:52;1.77;;;1.03;;
9374;SDS011;4727;51.202;6.344;2023-09-19T09:21:19;4.77;;;1.20;;
9374;SDS011;4727;51.202;6.344;2023-09-19T09:23:46;2.20;;;1.00;;
9374;SDS011;4727;51.202;6.344;2023-09-19T09:26:12;1.73;;;0.93;;
9374;SDS011;4727;51.202;6.344;2023-09-19T09:28:44;5.40;;;1.20;;
9374;SDS011;4727;51.202;6.344;2023-09-19T09:31:25;3.00;;;1.27;;
9374;SDS011;4727;51.202;6.344;2023-09-19T09:33:54;2.57;;;0.93;;
9374;SDS011;4727;51.202;6.344;2023-09-19T09:36:39;1.70;;;1.23;;
9374;SDS011;4727;51.202;6.344;2023-09-19T09:39:13;3.17;;;1.97;;
9374;SDS011;4727;51.202;6.344;2023-09-19T09:41:49;3.33;;;1.10;;
9374;SDS011;4727;51.202;6.344;2023-09-19T09:44:16;0.97;;;0.73;;
9374;SDS011;4727;51.202;6.344;2023-09-19T09:46:44;1.47;;;0.73;;
9374;SDS011;4727;51.202;6.344;2023-09-19T09:49:26;5.17;;;1.63;;
9374;SDS011;4727;51.202;6.344;2023-09-19T09:52:06;3.47;;;1.60;;
9374;SDS011;4727;51.202;6.344;2023-09-19T09:54:34;3.53;;;1.53;;
9374;SDS011;4727;51.202;6.344;2023-09-19T09:57:07;2.43;;;1.20;;
9374;SDS011;4727;51.202;6.344;2023-09-19T10:02:29;2.00;;;1.67;;
9374;SDS011;4727;51.202;6.344;2023-09-19T10:05:14;9.27;;;1.37;;
9374;SDS011;4727;51.202;6.344;2023-09-19T10:07:44;1.53;;;0.60;;
9374;SDS011;4727;51.202;6.344;2023-09-19T10:13:09;1.57;;;0.77;;
9374;SDS011;4727;51.202;6.344;2023-09-19T10:15:49;3.50;;;1.37;;
9374;SDS011;4727;51.202;6.344;2023-09-19T10:18:26;4.97;;;1.50;;
9374;SDS011;4727;51.202;6.344;2023-09-19T10:20:54;1.70;;;0.93;;
9374;SDS011;4727;51.202;6.344;2023-09-19T10:23:21;0.87;;;0.87;;
9374;SDS011;4727;51.202;6.344;2023-09-19T10:25:52;1.00;;;0.73;;
9374;SDS011;4727;51.202;6.344;2023-09-19T10:28:19;3.40;;;1.47;;
9374;SDS011;4727;51.202;6.344;2023-09-19T10:30:49;1.03;;;0.87;;
9374;SDS011;4727;51.202;6.344;2023-09-19T10:33:17;1.97;;;1.07;;
9374;SDS011;4727;51.202;6.344;2023-09-19T10:35:50;4.00;;;1.63;;
9374;SDS011;4727;51.202;6.344;2023-09-19T10:38:19;1.87;;;0.70;;
9374;SDS011;4727;51.202;6.344;2023-09-19T10:40:50;2.20;;;0.80;;
9374;SDS011;4727;51.202;6.344;2023-09-19T10:43:17;3.50;;;1.53;;
9374;SDS011;4727;51.202;6.344;2023-09-19T10:45:44;2.80;;;1.73;;
9374;SDS011;4727;51.202;6.344;2023-09-19T10:48:15;3.33;;;1.00;;
9374;SDS011;4727;51.202;6.344;2023-09-19T10:50:57;3.37;;;1.70;;
9374;SDS011;4727;51.202;6.344;2023-09-19T10:53:29;2.93;;;1.00;;
9374;SDS011;4727;51.202;6.344;2023-09-19T10:56:10;1.43;;;1.17;;
9374;SDS011;4727;51.202;6.344;2023-09-19T10:58:42;2.37;;;1.00;;
9374;SDS011;4727;51.202;6.344;2023-09-19T11:01:09;3.17;;;1.83;;
9374;SDS011;4727;51.202;6.344;2023-09-19T11:03:43;2.00;;;1.37;;
9374;SDS011;4727;51.202;6.344;2023-09-19T11:06:14;1.80;;;1.37;;
9374;SDS011;4727;51.202;6.344;2023-09-19T11:11:47;1.73;;;0.83;;
9374;SDS011;4727;51.202;6.344;2023-09-19T11:26:04;3.00;;;1.47;;
9374;SDS011;4727;51.202;6.344;2023-09-19T11:30:45;3.47;;;1.07;;
9374;SDS011;4727;51.202;6.344;2023-09-19T11:43:51;1.37;;;1.27;;
9374;SDS011;4727;51.202;6.344;2023-09-19T11:46:20;2.27;;;1.27;;
9374;SDS011;4727;51.202;6.344;2023-09-19T11:48:50;1.40;;;0.90;;
9374;SDS011;4727;51.202;6.344;2023-09-19T11:51:20;2.33;;;1.27;;
9374;SDS011;4727;51.202;6.344;2023-09-19T11:53:51;3.03;;;1.37;;
9374;SDS011;4727;51.202;6.344;2023-09-19T11:56:26;4.97;;;1.40;;
9374;SDS011;4727;51.202;6.344;2023-09-19T11:58:57;2.27;;;1.00;;
9374;SDS011;4727;51.202;6.344;2023-09-19T12:01:27;1.53;;;0.90;;
9374;SDS011;4727;51.202;6.344;2023-09-19T12:03:56;1.77;;;1.33;;
9374;SDS011;4727;51.202;6.344;2023-09-19T12:06:30;1.50;;;1.40;;
9374;SDS011;4727;51.202;6.344;2023-09-19T12:09:00;1.80;;;0.93;;
9374;SDS011;4727;51.202;6.344;2023-09-19T12:11:27;3.20;;;1.37;;
9374;SDS011;4727;51.202;6.344;2023-09-19T12:14:00;2.03;;;0.90;;
9374;SDS011;4727;51.202;6.344;2023-09-19T12:16:29;1.70;;;1.07;;
9374;SDS011;4727;51.202;6.344;2023-09-19T12:18:56;0.97;;;0.70;;
9374;SDS011;4727;51.202;6.344;2023-09-19T12:21:31;4.97;;;1.37;;
9374;SDS011;4727;51.202;6.344;2023-09-19T12:24:04;2.03;;;1.07;;
9374;SDS011;4727;51.202;6.344;2023-09-19T12:26:42;1.07;;;0.97;;
9374;SDS011;4727;51.202;6.344;2023-09-19T12:29:16;1.37;;;0.97;;
9374;SDS011;4727;51.202;6.344;2023-09-19T12:31:49;1.73;;;0.80;;
9374;SDS011;4727;51.202;6.344;2023-09-19T12:34:19;1.23;;;1.23;;
9374;SDS011;4727;51.202;6.344;2023-09-19T12:37:05;3.17;;;0.80;;
9374;SDS011;4727;51.202;6.344;2023-09-19T12:39:44;2.07;;;1.10;;
9374;SDS011;4727;51.202;6.344;2023-09-19T12:42:24;2.57;;;1.43;;
9374;SDS011;4727;51.202;6.344;2023-09-19T12:44:57;2.90;;;1.17;;
9374;SDS011;4727;51.202;6.344;2023-09-19T12:47:29;4.27;;;1.60;;
9374;SDS011;4727;51.202;6.344;2023-09-19T12:52:54;1.23;;;1.13;;
9374;SDS011;4727;51.202;6.344;2023-09-19T12:55:26;1.63;;;0.83;;
9374;SDS011;4727;51.202;6.344;2023-09-19T12:57:56;3.40;;;1.03;;
9374;SDS011;4727;51.202;6.344;2023-09-19T13:00:31;0.53;;;0.43;;
9374;SDS011;4727;51.202;6.344;2023-09-19T13:03:24;1.00;;;1.00;;
9374;SDS011;4727;51.202;6.344;2023-09-19T13:05:59;0.40;;;0.40;;
9374;SDS011;4727;51.202;6.344;2023-09-19T13:08:30;0.33;;;0.33;;
9374;SDS011;4727;51.202;6.344;2023-09-19T13:11:17;0.97;;;0.80;;
9374;SDS011;4727;51.202;6.344;2023-09-19T13:22:05;0.90;;;0.53;;
9374;SDS011;4727;51.202;6.344;2023-09-19T13:24:33;1.80;;;0.40;;
9374;SDS011;4727;51.202;6.344;2023-09-19T13:27:01;1.80;;;0.87;;
9374;SDS011;4727;51.202;6.344;2023-09-19T13:29:28;0.87;;;0.50;;
9374;SDS011;4727;51.202;6.344;2023-09-19T13:31:54;0.60;;;0.60;;
9374;SDS011;4727;51.202;6.344;2023-09-19T13:34:20;1.67;;;0.83;;
9374;SDS011;4727;51.202;6.344;2023-09-19T13:36:46;2.17;;;0.60;;
9374;SDS011;4727;51.202;6.344;2023-09-19T13:39:18;0.53;;;0.47;;
9374;SDS011;4727;51.202;6.344;2023-09-19T13:41:44;2.10;;;0.67;;
9374;SDS011;4727;51.202;6.344;2023-09-19T13:44:11;1.03;;;0.93;;
9374;SDS011;4727;51.202;6.344;2023-09-19T13:46:37;1.40;;;0.40;;
9374;SDS011;4727;51.202;6.344;2023-09-19T13:49:03;1.43;;;0.60;;
9374;SDS011;4727;51.202;6.344;2023-09-19T13:51:32;0.40;;;0.40;;
9374;SDS011;4727;51.202;6.344;2023-09-19T13:53:58;1.73;;;0.70;;
9374;SDS011;4727;51.202;6.344;2023-09-19T13:56:27;0.70;;;0.70;;
9374;SDS011;4727;51.202;6.344;2023-09-19T13:58:58;0.83;;;0.57;;
9374;SDS011;4727;51.202;6.344;2023-09-19T14:01:23;0.43;;;0.43;;
9374;SDS011;4727;51.202;6.344;2023-09-19T14:03:51;0.37;;;0.30;;
9374;SDS011;4727;51.202;6.344;2023-09-19T14:06:19;1.70;;;0.47;;
9374;SDS011;4727;51.202;6.344;2023-09-19T14:08:45;0.50;;;0.50;;
9374;SDS011;4727;51.202;6.344;2023-09-19T14:11:12;4.23;;;0.70;;
9374;SDS011;4727;51.202;6.344;2023-09-19T14:13:39;1.17;;;0.60;;
9374;SDS011;4727;51.202;6.344;2023-09-19T14:16:05;0.97;;;0.40;;
9374;SDS011;4727;51.202;6.344;2023-09-19T14:18:32;1.03;;;0.70;;
9374;SDS011;4727;51.202;6.344;2023-09-19T14:21:01;0.30;;;0.30;;
9374;SDS011;4727;51.202;6.344;2023-09-19T14:23:28;0.47;;;0.47;;
9374;SDS011;4727;51.202;6.344;2023-09-19T14:25:54;1.97;;;0.50;;
9374;SDS011;4727;51.202;6.344;2023-09-19T14:28:20;1.13;;;0.50;;
9374;SDS011;4727;51.202;6.344;2023-09-19T14:30:46;0.77;;;0.43;;
9374;SDS011;4727;51.202;6.344;2023-09-19T14:33:14;0.17;;;0.17;;
9374;SDS011;4727;51.202;6.344;2023-09-19T14:35:40;0.67;;;0.30;;
9374;SDS011;4727;51.202;6.344;2023-09-19T14:38:06;2.40;;;0.33;;
9374;SDS011;4727;51.202;6.344;2023-09-19T14:40:32;0.40;;;0.40;;
9374;SDS011;4727;51.202;6.344;2023-09-19T14:42:58;1.33;;;0.43;;
9374;SDS011;4727;51.202;6.344;2023-09-19T14:45:24;1.40;;;0.43;;
9374;SDS011;4727;51.202;6.344;2023-09-19T14:48:17;0.60;;;0.60;;
9374;SDS011;4727;51.202;6.344;2023-09-19T14:50:43;0.33;;;0.30;;
9374;SDS011;4727;51.202;6.344;2023-09-19T14:53:09;0.50;;;0.50;;
9374;SDS011;4727;51.202;6.344;2023-09-19T14:55:37;0.17;;;0.17;;
9374;SDS011;4727;51.202;6.344;2023-09-19T14:58:06;1.50;;;0.20;;
9374;SDS011;4727;51.202;6.344;2023-09-19T15:00:33;3.93;;;0.70;;
9374;SDS011;4727;51.202;6.344;2023-09-19T15:03:00;0.43;;;0.43;;
9374;SDS011;4727;51.202;6.344;2023-09-19T15:05:27;0.77;;;0.43;;
9374;SDS011;4727;51.202;6.344;2023-09-19T15:07:54;0.50;;;0.40;;
9374;SDS011;4727;51.202;6.344;2023-09-19T15:10:21;0.60;;;0.60;;
9374;SDS011;4727;51.202;6.344;2023-09-19T15:12:47;1.20;;;0.70;;
9374;SDS011;4727;51.202;6.344;2023-09-19T15:15:13;0.77;;;0.60;;
9374;SDS011;4727;51.202;6.344;2023-09-19T15:17:39;0.87;;;0.27;;
9374;SDS011;4727;51.202;6.344;2023-09-19T15:20:06;0.33;;;0.30;;
9374;SDS011;4727;51.202;6.344;2023-09-19T15:22:34;0.77;;;0.70;;
9374;SDS011;4727;51.202;6.344;2023-09-19T15:25:01;2.33;;;0.90;;
9374;SDS011;4727;51.202;6.344;2023-09-19T15:27:27;0.50;;;0.37;;
9374;SDS011;4727;51.202;6.344;2023-09-19T15:29:55;0.60;;;0.60;;
9374;SDS011;4727;51.202;6.344;2023-09-19T15:32:23;2.57;;;0.67;;
9374;SDS011;4727;51.202;6.344;2023-09-19T15:34:49;0.93;;;0.60;;
9374;SDS011;4727;51.202;6.344;2023-09-19T15:37:15;0.77;;;0.50;;
9374;SDS011;4727;51.202;6.344;2023-09-19T15:39:41;0.57;;;0.50;;
9374;SDS011;4727;51.202;6.344;2023-09-19T15:42:09;2.00;;;0.60;;
9374;SDS011;4727;51.202;6.344;2023-09-19T15:44:36;0.70;;;0.50;;
9374;SDS011;4727;51.202;6.344;2023-09-19T15:47:02;0.33;;;0.20;;
9374;SDS011;4727;51.202;6.344;2023-09-19T15:49:29;1.00;;;0.43;;
9374;SDS011;4727;51.202;6.344;2023-09-19T15:51:55;0.30;;;0.30;;
9374;SDS011;4727;51.202;6.344;2023-09-19T15:54:21;1.80;;;0.73;;
9374;SDS011;4727;51.202;6.344;2023-09-19T15:56:47;0.40;;;0.40;;
9374;SDS011;4727;51.202;6.344;2023-09-19T15:59:13;0.10;;;0.10;;
9374;SDS011;4727;51.202;6.344;2023-09-19T16:01:40;0.50;;;0.50;;
9374;SDS011;4727;51.202;6.344;2023-09-19T16:04:09;2.93;;;0.77;;
9374;SDS011;4727;51.202;6.344;2023-09-19T16:06:35;1.13;;;0.47;;
9374;SDS011;4727;51.202;6.344;2023-09-19T16:09:03;0.77;;;0.60;;
9374;SDS011;4727;51.202;6.344;2023-09-19T16:11:29;0.53;;;0.37;;
9374;SDS011;4727;51.202;6.344;2023-09-19T16:13:57;1.50;;;0.83;;
9374;SDS011;4727;51.202;6.344;2023-09-19T16:16:23;0.97;;;0.60;;